Time;durP1;ratioP1;P1;durP2;ratioP2;P2;SDS_P1;SDS_P2;PMS_P1;PMS_P2;Temp;Humidity;BMP_temperature;BMP_pressure;BME280_temperature;BME280_humidity;BME280_pressure;Samples;Min_cycle;Max_cycle;Signal;HPM_P1;HPM_P2
2021/08/09 00:02:22;;;;;;;7.70;2.53;;;;;;;17.60;58.33;98184.44;8316988;28;20484;-71
2021/08/09 00:06:24;;;;;;;3.67;2.13;;;;;;;17.60;57.95;98184.44;8317465;28;20285;-72
2021/08/09 00:10:29;;;;;;;8.80;2.70;;;;;;;17.65;58.18;98173.63;8317238;28;20205;-72
2021/08/09 00:14:32;;;;;;;6.03;2.20;;;;;;;17.63;58.37;98176.38;8317144;28;20200;-72
2021/08/09 00:18:35;;;;;;;7.23;2.43;;;;;;;17.63;58.23;98172.91;8317043;28;20436;-72
2021/08/09 00:22:39;;;;;;;7.33;2.60;;;;;;;17.62;58.28;98173.88;8317047;28;20262;-72
2021/08/09 00:26:44;;;;;;;6.03;2.23;;;;;;;17.62;58.16;98169.47;8316965;28;20216;-71
2021/08/09 00:30:46;;;;;;;3.60;2.37;;;;;;;17.54;57.92;98159.53;8316846;28;20212;-71
2021/08/09 00:34:49;;;;;;;3.73;2.37;;;;;;;17.55;57.87;98169.06;8316757;28;20225;-71
2021/08/09 00:38:52;;;;;;;6.70;2.70;;;;;;;17.33;58.11;98177.56;8316675;28;20201;-72
2021/08/09 00:42:56;;;;;;;4.40;2.70;;;;;;;17.35;58.46;98169.59;8316751;28;20465;-72
2021/08/09 00:46:59;;;;;;;4.93;2.93;;;;;;;17.19;58.54;98178.50;8316668;28;20284;-71
2021/08/09 00:51:02;;;;;;;8.63;2.67;;;;;;;17.25;58.21;98179.88;8316222;28;20201;-71
2021/08/09 00:55:05;;;;;;;5.80;2.53;;;;;;;17.26;58.72;98184.16;8315977;28;20229;-71
2021/08/09 00:59:10;;;;;;;6.63;2.80;;;;;;;17.18;58.88;98181.22;8315703;28;20216;-71
2021/08/09 01:03:13;;;;;;;5.30;2.60;;;;;;;17.31;58.34;98189.91;8315834;28;20205;-72
2021/08/09 01:07:16;;;;;;;6.67;3.00;;;;;;;17.16;58.98;98189.19;8316035;28;20388;-71
2021/08/09 01:11:24;;;;;;;4.43;2.60;;;;;;;17.25;59.13;98185.09;8315826;28;20208;-71
2021/08/09 01:15:31;;;;;;;5.63;2.60;;;;;;;17.28;58.63;98182.25;8315777;28;20224;-71
2021/08/09 01:19:42;;;;;;;3.77;2.67;;;;;;;17.23;59.18;98192.22;8315431;28;20243;-71
2021/08/09 01:23:55;;;;;;;5.50;2.60;;;;;;;17.13;58.94;98178.91;8315677;28;20208;-71
2021/08/09 01:28:00;;;;;;;8.03;3.00;;;;;;;16.63;60.94;98184.88;8315515;28;20392;-72
2021/08/09 01:32:04;;;;;;;5.80;3.00;;;;;;;16.79;60.35;98169.84;8315694;28;20201;-72
2021/08/09 01:36:08;;;;;;;6.13;3.10;;;;;;;17.05;59.73;98168.13;8315621;28;20252;-72
2021/08/09 01:40:11;;;;;;;5.93;2.73;;;;;;;17.26;59.48;98172.84;8315629;28;20205;-71
2021/08/09 01:44:16;;;;;;;3.73;2.77;;;;;;;17.25;59.35;98156.31;8315582;28;20201;-71
2021/08/09 01:48:19;;;;;;;5.33;3.00;;;;;;;17.29;59.61;98162.19;8315528;28;20205;-71
2021/08/09 01:52:22;;;;;;;4.17;2.90;;;;;;;17.29;59.74;98162.19;8315207;28;20201;-71
2021/08/09 01:56:25;;;;;;;5.80;3.10;;;;;;;17.32;59.16;98157.53;8314834;28;20256;-71
2021/08/09 02:00:29;;;;;;;6.07;3.23;;;;;;;17.27;59.21;98164.03;8315113;28;20201;-71
2021/08/09 02:04:32;;;;;;;7.53;3.17;;;;;;;17.25;59.18;98165.94;8315193;28;20201;-71
2021/08/09 02:08:36;;;;;;;4.20;2.50;;;;;;;17.22;59.35;98160.91;8314807;28;20365;-71
2021/08/09 02:12:45;;;;;;;5.33;2.67;;;;;;;17.15;58.95;98161.34;8320573;28;20208;-71
2021/08/09 02:16:53;;;;;;;4.50;2.90;;;;;;;16.81;60.15;98160.97;8320770;28;20296;-71
2021/08/09 02:20:59;;;;;;;6.63;3.27;;;;;;;16.85;60.13;98174.72;8320913;28;20233;-71
2021/08/09 02:25:05;;;;;;;6.63;3.20;;;;;;;16.45;61.72;98179.91;8320630;28;20212;-71
2021/08/09 02:29:12;;;;;;;6.00;3.33;;;;;;;16.68;60.61;98178.41;8320353;28;20205;-71
2021/08/09 02:33:17;;;;;;;7.03;3.13;;;;;;;16.36;62.09;98183.13;8320351;28;20220;-71
2021/08/09 02:37:20;;;;;;;5.47;3.10;;;;;;;16.71;60.69;98172.13;8320219;28;20247;-71
2021/08/09 02:41:23;;;;;;;7.77;3.00;;;;;;;16.79;60.41;98170.69;8320115;28;20208;-71
2021/08/09 02:45:27;;;;;;;4.07;2.63;;;;;;;16.87;60.50;98170.22;8320197;28;20201;-71
2021/08/09 02:49:31;;;;;;;7.70;3.23;;;;;;;16.76;60.35;98185.75;8319883;28;20219;-71
2021/08/09 02:53:34;;;;;;;4.13;2.97;;;;;;;16.85;59.99;98171.25;8319694;28;20484;-71
2021/08/09 02:57:38;;;;;;;4.00;3.00;;;;;;;16.81;60.01;98168.81;8319480;28;20536;-71
2021/08/09 03:01:41;;;;;;;7.43;3.10;;;;;;;16.72;60.03;98186.91;8319648;28;20387;-71
2021/08/09 03:05:46;;;;;;;7.60;2.80;;;;;;;16.74;60.26;98193.69;8319443;28;20435;-71
2021/08/09 03:09:50;;;;;;;7.60;3.63;;;;;;;16.64;60.23;98192.63;8319381;28;20201;-71
2021/08/09 03:13:53;;;;;;;6.43;2.80;;;;;;;16.78;59.91;98187.31;8319068;28;20228;-71
2021/08/09 03:17:56;;;;;;;4.20;3.00;;;;;;;16.68;60.07;98196.72;8318917;28;20546;-71
2021/08/09 03:22:01;;;;;;;4.97;2.87;;;;;;;16.65;60.04;98201.31;8318808;28;20244;-71
2021/08/09 03:26:05;;;;;;;5.23;3.00;;;;;;;16.57;60.15;98193.97;8318882;28;20389;-71
2021/08/09 03:30:11;;;;;;;5.73;2.97;;;;;;;16.59;60.32;98202.53;8318615;28;20201;-71
2021/08/09 03:34:14;;;;;;;4.97;3.00;;;;;;;16.66;60.21;98202.97;8318498;28;20208;-71
2021/08/09 03:38:18;;;;;;;3.90;2.90;;;;;;;16.49;60.34;98218.00;8318264;28;20228;-72
2021/08/09 03:42:22;;;;;;;8.03;2.97;;;;;;;16.63;59.84;98216.25;8318093;28;20207;-72
2021/08/09 03:46:25;;;;;;;5.00;3.33;;;;;;;16.52;60.14;98211.72;8318072;28;20211;-72
2021/08/09 03:50:28;;;;;;;4.20;2.80;;;;;;;16.55;59.66;98209.75;8318016;28;20276;-71
2021/08/09 03:54:32;;;;;;;5.50;3.20;;;;;;;16.59;59.83;98226.91;8317594;28;20403;-72
2021/08/09 03:58:35;;;;;;;5.63;3.67;;;;;;;15.77;62.30;98218.13;8317396;28;20229;-71
2021/08/09 04:02:38;;;;;;;9.70;3.43;;;;;;;15.95;61.86;98229.19;8317379;28;20201;-71
2021/08/09 04:06:53;;;;;;;5.83;3.10;;;;;;;16.05;61.22;98234.72;8317429;28;20209;-71
2021/08/09 04:10:57;;;;;;;7.83;3.20;;;;;;;16.31;60.77;98229.59;8317005;28;20413;-71
2021/08/09 04:15:00;;;;;;;3.67;2.43;;;;;;;16.31;59.81;98216.53;8317271;28;20201;-71
2021/08/09 04:19:03;;;;;;;5.60;2.43;;;;;;;16.22;58.97;98224.03;8317105;28;20268;-71
2021/08/09 04:23:05;;;;;;;5.60;2.53;;;;;;;16.33;59.33;98230.34;8317115;28;20205;-71
2021/08/09 04:27:10;;;;;;;5.63;2.83;;;;;;;16.40;59.22;98229.84;8316823;28;20209;-71
2021/08/09 04:31:13;;;;;;;6.40;2.53;;;;;;;16.32;59.39;98229.53;8317072;28;20223;-72
2021/08/09 04:35:16;;;;;;;4.50;2.80;;;;;;;16.42;59.01;98222.75;8316146;28;20208;-72
2021/08/09 04:39:18;;;;;;;5.53;3.20;;;;;;;16.41;59.60;98228.06;8316598;28;20225;-72
2021/08/09 04:43:23;;;;;;;4.90;3.40;;;;;;;16.45;60.15;98226.97;8316414;28;20255;-73
2021/08/09 04:47:26;;;;;;;6.43;2.80;;;;;;;16.49;59.95;98228.44;8316537;28;20209;-71
2021/08/09 04:51:29;;;;;;;5.77;3.00;;;;;;;16.57;59.99;98228.78;8316727;28;20201;-71
2021/08/09 04:55:32;;;;;;;4.93;2.90;;;;;;;16.48;60.40;98220.69;8315926;28;20225;-71
2021/08/09 04:59:40;;;;;;;5.00;3.17;;;;;;;16.48;60.39;98220.69;8316027;28;20233;-71
2021/08/09 05:03:45;;;;;;;8.40;3.53;;;;;;;15.92;62.50;98225.97;8316302;28;20205;-71
2021/08/09 05:07:48;;;;;;;10.30;3.23;;;;;;;16.25;61.41;98230.84;8316184;28;20374;-71
2021/08/09 05:11:52;;;;;;;6.77;3.10;;;;;;;16.25;61.55;98222.16;8315843;28;20201;-71
2021/08/09 05:15:56;;;;;;;6.73;2.90;;;;;;;16.42;61.11;98220.13;8315572;28;20527;-71
2021/08/09 05:19:59;;;;;;;6.93;3.70;;;;;;;16.14;62.45;98220.22;8315599;28;20244;-70
2021/08/09 05:24:03;;;;;;;6.40;3.10;;;;;;;16.18;62.55;98222.56;8315987;28;20213;-71
2021/08/09 05:28:06;;;;;;;4.47;3.00;;;;;;;16.28;61.98;98224.56;8315816;28;20209;-71
2021/08/09 05:32:10;;;;;;;6.03;3.10;;;;;;;16.53;61.08;98216.00;8315755;28;20208;-71
2021/08/09 05:36:13;;;;;;;10.17;3.30;;;;;;;16.37;61.62;98210.91;8315726;28;20395;-71
2021/08/09 05:40:16;;;;;;;4.83;2.90;;;;;;;16.36;61.76;98214.47;8315926;28;20201;-71
2021/08/09 05:44:19;;;;;;;4.33;3.20;;;;;;;16.49;61.96;98204.09;8316200;28;20512;-71
2021/08/09 05:48:24;;;;;;;7.50;4.53;;;;;;;16.29;62.51;98202.75;8321927;28;20220;-71
2021/08/09 05:52:27;;;;;;;6.37;3.00;;;;;;;16.51;61.54;98204.81;8321695;28;20411;-71
2021/08/09 05:56:30;;;;;;;5.07;3.10;;;;;;;16.52;62.02;98202.09;8321162;28;20228;-71
2021/08/09 06:00:33;;;;;;;6.03;3.20;;;;;;;16.43;62.77;98207.94;8321165;28;20253;-71
2021/08/09 06:04:38;;;;;;;5.47;3.13;;;;;;;16.36;61.48;98204.84;8321542;28;20220;-70
2021/08/09 06:08:42;;;;;;;5.60;3.00;;;;;;;16.73;61.64;98212.09;8321139;28;20215;-71
2021/08/09 06:12:45;;;;;;;5.33;3.33;;;;;;;16.72;62.53;98224.34;8321039;28;20201;-71
2021/08/09 06:16:48;;;;;;;7.03;3.10;;;;;;;17.17;61.96;98227.50;8320757;28;20225;-72
2021/08/09 06:20:52;;;;;;;6.23;3.23;;;;;;;17.12;61.55;98229.56;8320649;28;20419;-72
2021/08/09 06:24:55;;;;;;;6.33;3.33;;;;;;;17.60;60.84;98226.34;8320672;28;20201;-72
2021/08/09 06:28:58;;;;;;;8.07;3.97;;;;;;;17.62;59.39;98232.31;8320560;28;20216;-72
2021/08/09 06:33:01;;;;;;;8.03;3.50;;;;;;;17.68;59.70;98239.75;8320493;28;20196;-72
2021/08/09 06:37:05;;;;;;;5.63;3.40;;;;;;;17.90;59.78;98239.13;8320258;28;20229;-71
2021/08/09 06:41:08;;;;;;;9.07;3.50;;;;;;;18.00;59.39;98238.50;8320065;28;20205;-72
2021/08/09 06:45:12;;;;;;;3.70;2.80;;;;;;;18.51;57.72;98235.72;8319977;28;20392;-72
2021/08/09 06:49:14;;;;;;;6.57;3.10;;;;;;;18.46;57.80;98238.66;8319899;28;20204;-71
2021/08/09 06:53:19;;;;;;;5.33;2.90;;;;;;;18.36;58.02;98240.28;8319739;28;20205;-72
2021/08/09 06:57:21;;;;;;;6.40;2.87;;;;;;;18.99;55.71;98242.75;8319261;28;20255;-72
2021/08/09 07:01:24;;;;;;;5.37;2.50;;;;;;;19.37;54.47;98237.22;8319668;28;20516;-72
2021/08/09 07:05:28;;;;;;;7.37;3.07;;;;;;;19.50;54.99;98242.38;8320350;28;20497;-72
2021/08/09 07:09:32;;;;;;;6.83;2.60;;;;;;;19.69;53.80;98245.25;8349228;28;20499;-72
2021/08/09 07:13:35;;;;;;;3.97;2.50;;;;;;;19.99;53.84;98240.38;8291773;28;20198;-72
2021/08/09 07:17:41;;;;;;;5.53;2.43;;;;;;;19.54;54.71;98235.94;8286572;28;20412;-72
2021/08/09 07:21:44;;;;;;;5.97;2.50;;;;;;;20.02;54.38;98245.41;8296657;28;20241;-72
2021/08/09 07:25:48;;;;;;;5.30;2.70;;;;;;;20.32;53.61;98236.88;8301715;28;20193;-73
2021/08/09 07:29:51;;;;;;;4.83;2.40;;;;;;;20.23;54.45;98232.34;8304495;28;20200;-73
2021/08/09 07:33:57;;;;;;;3.50;2.10;;;;;;;20.36;52.99;98235.66;8301428;28;20202;-73
2021/08/09 07:38:00;;;;;;;5.87;2.60;;;;;;;20.65;52.24;98233.34;8301356;28;20538;-73
2021/08/09 07:42:04;;;;;;;2.60;2.03;;;;;;;20.89;51.41;98238.41;8298011;28;20196;-73
2021/08/09 07:46:27;;;;;;;5.43;2.30;;;;;;;21.26;49.81;98235.31;8303427;28;20194;-73
2021/08/09 07:50:31;;;;;;;3.73;2.00;;;;;;;21.65;49.48;98230.31;8303997;28;20269;-73
2021/08/09 07:54:34;;;;;;;5.60;2.47;;;;;;;21.43;49.86;98225.16;8303271;28;20288;-72
2021/08/09 07:58:38;;;;;;;4.77;2.40;;;;;;;22.07;49.34;98221.47;8295060;28;20221;-72
2021/08/09 08:02:42;;;;;;;7.33;2.47;;;;;;;22.13;47.02;98220.91;8303571;28;20204;-72
2021/08/09 08:06:45;;;;;;;4.03;2.10;;;;;;;22.93;47.02;98234.91;8300574;28;20264;-74
2021/08/09 08:10:47;;;;;;;5.73;2.20;;;;;;;22.70;45.89;98238.81;8298889;28;20203;-73
2021/08/09 08:14:52;;;;;;;6.30;2.00;;;;;;;22.52;46.23;98241.28;8300418;28;20200;-75
2021/08/09 08:18:55;;;;;;;5.43;2.00;;;;;;;22.32;47.07;98235.97;8298631;28;20229;-73
2021/08/09 08:23:01;;;;;;;4.20;2.20;;;;;;;21.99;47.31;98245.84;8300152;28;20369;-73
2021/08/09 08:27:05;;;;;;;6.53;2.10;;;;;;;22.71;46.04;98246.56;8299567;28;20543;-73
2021/08/09 08:31:09;;;;;;;5.17;2.07;;;;;;;22.99;44.96;98242.28;8300328;28;20197;-73
2021/08/09 08:35:12;;;;;;;4.60;1.83;;;;;;;23.72;44.32;98252.34;8300991;28;20197;-73
2021/08/09 08:39:16;;;;;;;3.77;1.80;;;;;;;23.66;44.04;98252.88;8299699;28;20248;-73
2021/08/09 08:43:20;;;;;;;4.33;2.33;;;;;;;23.82;43.14;98257.63;8298027;28;20202;-75
2021/08/09 08:47:25;;;;;;;3.80;1.90;;;;;;;24.42;41.94;98256.34;8313572;28;20201;-73
2021/08/09 08:51:28;;;;;;;7.93;2.43;;;;;;;24.77;41.50;98251.13;8316468;28;20492;-73
2021/08/09 08:55:31;;;;;;;3.83;1.60;;;;;;;24.27;41.86;98248.06;8316046;28;20221;-73
2021/08/09 08:59:35;;;;;;;3.50;1.60;;;;;;;25.05;41.13;98248.34;8316171;28;20248;-73
2021/08/09 09:03:40;;;;;;;4.00;1.40;;;;;;;25.29;40.02;98246.94;8316035;28;20208;-73
2021/08/09 09:07:44;;;;;;;3.27;1.50;;;;;;;25.31;38.26;98244.97;8316367;28;20527;-73
2021/08/09 09:11:48;;;;;;;3.40;1.20;;;;;;;25.78;37.31;98249.91;8316098;28;20212;-73
2021/08/09 09:16:03;;;;;;;4.70;1.60;;;;;;;25.67;38.22;98248.34;8316245;28;20224;-73
2021/08/09 09:20:25;;;;;;;3.90;1.43;;;;;;;25.86;37.99;98249.09;8319697;28;20245;-73
2021/08/09 09:24:29;;;;;;;2.20;1.10;;;;;;;26.23;37.56;98247.94;8322251;28;20208;-72
2021/08/09 09:28:33;;;;;;;2.43;1.20;;;;;;;25.96;36.68;98246.34;8322337;28;20206;-73
2021/08/09 09:32:36;;;;;;;2.87;1.37;;;;;;;26.16;36.69;98237.16;8322620;28;20232;-73
2021/08/09 09:36:49;;;;;;;5.60;1.53;;;;;;;26.29;36.62;98239.34;8322190;28;20202;-73
2021/08/09 09:40:52;;;;;;;4.10;1.60;;;;;;;26.02;35.73;98243.88;8322085;28;20531;-76
2021/08/09 09:44:55;;;;;;;3.27;1.20;;;;;;;26.06;35.61;98241.75;8322018;28;20210;-75
2021/08/09 09:49:02;;;;;;;2.50;1.13;;;;;;;26.09;35.37;98249.41;8321957;28;20210;-76
2021/08/09 09:53:17;;;;;;;2.30;1.07;;;;;;;26.29;34.25;98244.63;8321555;28;20203;-76
2021/08/09 09:57:20;;;;;;;4.93;1.33;;;;;;;26.19;34.42;98247.44;8321263;28;20224;-76
2021/08/09 10:01:24;;;;;;;4.37;1.30;;;;;;;26.17;34.19;98246.75;8321555;28;20239;-77
2021/08/09 10:05:28;;;;;;;8.77;1.23;;;;;;;26.26;34.60;98242.34;8321631;28;20211;-76
2021/08/09 10:09:32;;;;;;;3.73;1.00;;;;;;;25.49;36.00;98250.19;8309434;28;20211;-74
2021/08/09 10:13:37;;;;;;;3.70;1.17;;;;;;;26.55;35.39;98251.69;8301681;28;20203;-75
2021/08/09 10:17:43;;;;;;;1.73;1.00;;;;;;;26.97;32.69;98243.63;8303614;28;20198;-76
2021/08/09 10:21:46;;;;;;;2.07;1.20;;;;;;;27.07;31.46;98240.81;8303671;28;20229;-74
2021/08/09 10:25:51;;;;;;;4.53;1.13;;;;;;;27.30;32.39;98249.81;8303627;28;20199;-75
2021/08/09 10:30:14;;;;;;;7.27;1.23;;;;;;;27.28;31.23;98248.28;8302608;28;20208;-76
2021/08/09 10:34:32;;;;;;;2.13;1.10;;;;;;;26.97;30.92;98248.94;8308698;28;20461;-77
2021/08/09 10:38:37;;;;;;;4.33;1.20;;;;;;;26.96;31.76;98246.44;8300971;28;20246;-74
2021/08/09 10:42:42;;;;;;;1.20;0.90;;;;;;;26.97;30.42;98242.81;8287598;28;20203;-76
2021/08/09 10:46:45;;;;;;;4.67;1.20;;;;;;;27.61;31.48;98237.63;8287687;28;20502;-75
2021/08/09 10:50:51;;;;;;;3.67;0.93;;;;;;;27.80;31.53;98239.06;8294991;28;20199;-76
2021/08/09 10:54:54;;;;;;;2.50;1.10;;;;;;;27.87;29.86;98237.38;8318716;28;20240;-74
2021/08/09 10:58:58;;;;;;;2.73;1.20;;;;;;;27.96;29.30;98235.53;8318664;28;20238;-75
2021/08/09 11:03:08;;;;;;;3.20;1.10;;;;;;;26.71;30.98;98230.47;8318626;28;20199;-75
2021/08/09 11:07:18;;;;;;;5.13;1.20;;;;;;;26.88;31.97;98234.00;8317061;28;20199;-75
2021/08/09 11:11:21;;;;;;;2.67;1.00;;;;;;;26.76;32.16;98228.19;8318009;28;20204;-76
2021/08/09 11:15:25;;;;;;;1.93;1.00;;;;;;;27.11;31.15;98237.66;8317901;28;20194;-74
2021/08/09 11:19:28;;;;;;;2.87;1.13;;;;;;;26.77;30.06;98229.84;8317653;28;20237;-76
2021/08/09 11:23:36;;;;;;;2.87;1.20;;;;;;;25.87;33.40;98224.22;8317625;28;20194;-69
2021/08/09 11:27:56;;;;;;;2.20;1.20;;;;;;;27.27;31.14;98217.41;8316180;28;20199;-75
2021/08/09 11:32:00;;;;;;;3.60;0.93;;;;;;;26.83;30.31;98220.41;8291640;28;20204;-69
2021/08/09 11:36:05;;;;;;;4.50;1.37;;;;;;;27.17;30.40;98222.88;8317860;28;20193;-65
2021/08/09 11:40:09;;;;;;;2.73;1.00;;;;;;;27.16;28.70;98212.41;8351009;28;20232;-71
2021/08/09 11:44:12;;;;;;;4.10;1.27;;;;;;;26.74;29.56;98208.91;8320518;28;20207;-70
2021/08/09 11:48:25;;;;;;;1.90;0.97;;;;;;;26.47;30.56;98208.19;8294414;28;20206;-68
2021/08/09 11:52:28;;;;;;;9.43;1.27;;;;;;;27.30;30.96;98203.75;8285500;28;20206;-69
2021/08/09 11:56:33;;;;;;;2.33;1.20;;;;;;;27.37;29.05;98202.09;8299031;28;20228;-76
2021/08/09 12:00:40;;;;;;;6.30;1.30;;;;;;;27.77;28.24;98194.19;8302918;28;20246;-75
2021/08/09 12:04:46;;;;;;;4.33;1.00;;;;;;;28.03;28.72;98200.06;8287944;28;20194;-73
2021/08/09 12:08:56;;;;;;;6.17;1.10;;;;;;;27.46;29.94;98205.56;8298804;28;20200;-73
2021/08/09 12:12:59;;;;;;;4.73;1.17;;;;;;;26.60;30.71;98198.94;8284980;28;20207;-63
2021/08/09 12:17:12;;;;;;;4.27;1.20;;;;;;;27.57;30.28;98196.38;8284797;28;20551;-63
2021/08/09 12:21:17;;;;;;;4.97;1.40;;;;;;;27.86;29.57;98212.59;8284472;28;20238;-63
2021/08/09 12:25:22;;;;;;;5.63;1.10;;;;;;;27.75;28.78;98214.81;8284779;28;20211;-63
2021/08/09 12:29:25;;;;;;;2.53;1.13;;;;;;;27.04;28.98;98211.94;8284405;28;20208;-63
2021/08/09 12:33:28;;;;;;;2.07;0.93;;;;;;;27.44;29.47;98202.25;8284494;28;20381;-64
2021/08/09 12:37:34;;;;;;;4.33;1.10;;;;;;;27.60;28.97;98204.84;8289454;28;20521;-63
2021/08/09 12:41:37;;;;;;;2.67;1.03;;;;;;;27.50;28.28;98199.75;8299651;28;20245;-64
2021/08/09 12:45:41;;;;;;;2.30;1.13;;;;;;;27.65;28.97;98188.41;8299635;28;20194;-63
2021/08/09 12:49:44;;;;;;;3.57;1.47;;;;;;;28.04;28.54;98192.91;8299490;28;20205;-64
2021/08/09 12:53:49;;;;;;;1.47;0.90;;;;;;;27.55;30.17;98195.72;8301200;28;20200;-64
2021/08/09 12:57:52;;;;;;;3.80;1.20;;;;;;;27.81;29.08;98196.31;8316320;28;20203;-63
2021/08/09 13:01:55;;;;;;;1.53;0.90;;;;;;;27.75;29.12;98209.47;8316479;28;20238;-63
2021/08/09 13:06:00;;;;;;;2.30;1.10;;;;;;;27.78;28.70;98193.16;8316312;28;20203;-63
2021/08/09 13:10:06;;;;;;;1.63;1.00;;;;;;;27.14;28.93;98183.31;8316366;28;20206;-70
2021/08/09 13:14:09;;;;;;;2.07;1.00;;;;;;;26.39;30.54;98188.75;8316877;28;20213;-70
2021/08/09 13:18:12;;;;;;;1.57;1.03;;;;;;;26.47;30.72;98194.09;8316215;28;20223;-69
2021/08/09 13:22:15;;;;;;;1.47;0.97;;;;;;;27.10;29.07;98185.50;8316373;28;20358;-69
2021/08/09 13:26:37;;;;;;;2.13;1.03;;;;;;;27.82;28.03;98179.34;8315894;28;20228;-68
2021/08/09 13:31:12;;;;;;;1.93;0.90;;;;;;;27.88;27.57;98176.03;8315255;28;20204;-67
2021/08/09 13:35:42;;;;;;;3.63;1.00;;;;;;;27.90;27.61;98181.19;8341968;22;20237;-86
2021/08/09 13:40:04;;;;;;;2.50;1.00;;;;;;;28.13;27.63;98178.56;8381762;28;20223;-89
2021/08/09 13:44:30;;;;;;;1.10;0.80;;;;;;;28.31;28.02;98177.47;8362773;28;20198;-86
2021/08/09 13:48:52;;;;;;;1.53;0.77;;;;;;;27.91;29.03;98169.50;8376598;28;20208;-85
2021/08/09 13:53:22;;;;;;;4.40;1.50;;;;;;;27.69;29.97;98179.06;8380250;28;20198;-84
2021/08/09 13:57:49;;;;;;;1.60;0.87;;;;;;;26.77;30.82;98176.72;8379030;28;20205;-83
2021/08/09 14:02:17;;;;;;;2.07;1.10;;;;;;;26.57;32.40;98176.16;8382204;28;20534;-83
2021/08/09 14:06:53;;;;;;;1.87;1.07;;;;;;;27.35;29.29;98174.03;8384113;28;20569;-84
2021/08/09 14:10:56;;;;;;;2.30;1.10;;;;;;;27.57;30.39;98167.13;8388863;28;20205;-83
2021/08/09 14:14:59;;;;;;;1.73;1.10;;;;;;;27.72;29.63;98157.47;8388562;28;20385;-83
2021/08/09 14:19:03;;;;;;;2.83;1.10;;;;;;;26.58;29.54;98161.06;8388364;28;20404;-84
2021/08/09 14:23:06;;;;;;;2.30;1.10;;;;;;;26.86;29.65;98156.28;8388075;28;20224;-84
2021/08/09 14:27:11;;;;;;;2.30;1.10;;;;;;;27.25;29.63;98150.28;8387911;28;20214;-84
2021/08/09 14:31:13;;;;;;;2.53;1.07;;;;;;;27.50;28.34;98143.88;8387854;28;20205;-83
2021/08/09 14:35:18;;;;;;;2.50;0.73;;;;;;;27.69;29.73;98155.13;8387536;28;20257;-83
2021/08/09 14:39:21;;;;;;;2.57;1.10;;;;;;;27.65;27.84;98148.50;8387825;28;20202;-84
2021/08/09 14:43:24;;;;;;;1.53;0.80;;;;;;;26.87;29.03;98152.63;8387501;28;20232;-86
2021/08/09 14:47:27;;;;;;;1.03;0.80;;;;;;;27.13;29.54;98152.44;8387607;28;20212;-85
2021/08/09 14:51:31;;;;;;;1.83;0.90;;;;;;;27.53;29.03;98157.84;8387219;28;20205;-87
2021/08/09 14:55:34;;;;;;;2.17;1.10;;;;;;;27.27;29.25;98149.13;8387198;28;20393;-83
2021/08/09 14:59:37;;;;;;;2.33;1.10;;;;;;;27.32;29.04;98148.59;8386866;28;20205;-87
2021/08/09 15:03:42;;;;;;;3.37;0.93;;;;;;;27.33;29.73;98144.94;8386598;28;20201;-83
2021/08/09 15:07:46;;;;;;;2.47;1.20;;;;;;;27.41;28.46;98142.25;8386743;28;20213;-83
2021/08/09 15:11:49;;;;;;;1.90;0.97;;;;;;;27.45;28.50;98151.53;8386685;28;20206;-84
2021/08/09 15:15:52;;;;;;;4.70;1.30;;;;;;;27.19;30.03;98146.44;8386357;28;20206;-89
2021/08/09 15:19:55;;;;;;;1.83;0.93;;;;;;;26.92;28.47;98145.84;8386319;28;20270;-84
2021/08/09 15:23:59;;;;;;;3.07;1.50;;;;;;;26.80;28.97;98160.44;8386165;28;20199;-84
2021/08/09 15:28:03;;;;;;;2.83;1.20;;;;;;;27.00;29.05;98146.81;8385859;28;20207;-85
2021/08/09 15:32:06;;;;;;;2.27;1.00;;;;;;;27.16;29.04;98149.44;8385799;28;20204;-91
2021/08/09 15:36:09;;;;;;;2.17;1.10;;;;;;;27.06;28.97;98148.81;8385656;28;20240;-86
2021/08/09 15:40:14;;;;;;;2.63;1.00;;;;;;;27.15;30.18;98144.28;8385327;28;20259;-87
2021/08/09 15:44:17;;;;;;;2.27;1.10;;;;;;;26.92;29.43;98143.16;8385416;28;20382;-86
2021/08/09 15:48:20;;;;;;;2.73;0.80;;;;;;;26.85;29.52;98139.50;8385019;28;20208;-92
2021/08/09 15:52:23;;;;;;;1.77;1.20;;;;;;;26.67;30.62;98138.84;8384933;28;20207;-83
2021/08/09 15:56:28;;;;;;;6.50;1.40;;;;;;;26.49;31.22;98125.72;8384713;28;20204;-83
2021/08/09 16:00:31;;;;;;;1.30;0.90;;;;;;;26.24;31.18;98133.66;8384546;28;20227;-84
2021/08/09 16:04:34;;;;;;;2.73;1.13;;;;;;;26.17;31.77;98132.66;8384500;28;20223;-84
2021/08/09 16:08:38;;;;;;;2.47;1.20;;;;;;;26.13;29.87;98128.66;8384461;28;20212;-86
2021/08/09 16:12:42;;;;;;;3.40;1.30;;;;;;;26.13;29.75;98120.69;8384561;28;20205;-89
2021/08/09 16:16:45;;;;;;;3.37;1.30;;;;;;;25.85;30.38;98122.75;8384740;28;20202;-87
2021/08/09 16:20:48;;;;;;;2.70;1.27;;;;;;;25.83;30.08;98117.59;8384164;28;20238;-86
2021/08/09 16:24:51;;;;;;;2.70;1.03;;;;;;;25.66;30.05;98119.38;8384265;28;20280;-85
2021/08/09 16:28:55;;;;;;;2.03;1.00;;;;;;;25.53;31.10;98116.34;8383317;28;20206;-84
2021/08/09 16:32:58;;;;;;;2.07;0.90;;;;;;;25.43;32.11;98124.41;8384071;28;20208;-85
2021/08/09 16:37:01;;;;;;;2.27;1.17;;;;;;;25.46;31.78;98125.94;8383937;28;20230;-85
2021/08/09 16:41:05;;;;;;;3.03;1.10;;;;;;;25.45;32.73;98127.72;8383554;28;20295;-89
2021/08/09 16:45:11;;;;;;;3.27;1.27;;;;;;;25.36;31.94;98128.72;8383849;28;20207;-85
2021/08/09 16:49:14;;;;;;;2.33;1.20;;;;;;;25.39;32.19;98122.25;8383368;28;20207;-85
2021/08/09 16:53:17;;;;;;;1.97;1.20;;;;;;;25.29;32.75;98125.84;8383246;28;20207;-88
2021/08/09 16:57:26;;;;;;;3.27;1.37;;;;;;;25.17;32.92;98125.25;8383419;28;20230;-85
2021/08/09 17:01:30;;;;;;;2.87;1.20;;;;;;;25.09;32.65;98135.81;8383144;28;20237;-86
2021/08/09 17:05:33;;;;;;;3.00;1.23;;;;;;;24.96;33.03;98130.91;8382910;28;20292;-85
2021/08/09 17:09:43;;;;;;;2.10;1.03;;;;;;;24.78;33.58;98125.66;8383430;28;20203;-86
2021/08/09 17:13:46;;;;;;;3.40;1.20;;;;;;;24.88;33.88;98122.91;8382918;28;20233;-85
2021/08/09 17:17:51;;;;;;;2.43;1.00;;;;;;;24.87;33.82;98123.06;8383053;28;20329;-85
2021/08/09 17:21:53;;;;;;;3.83;1.40;;;;;;;24.90;34.12;98115.66;8382642;28;20414;-85
2021/08/09 17:25:56;;;;;;;3.00;1.50;;;;;;;24.82;34.49;98117.41;8382722;28;20206;-86
2021/08/09 17:29:59;;;;;;;4.60;1.40;;;;;;;24.75;34.84;98120.69;8382903;28;20207;-86
2021/08/09 17:34:04;;;;;;;2.53;1.30;;;;;;;24.71;34.79;98127.28;8382695;28;20242;-86
2021/08/09 17:38:07;;;;;;;2.73;1.10;;;;;;;24.62;35.40;98125.53;8382774;28;20270;-85
2021/08/09 17:42:10;;;;;;;4.43;2.13;;;;;;;24.61;36.19;98136.28;8387997;28;20264;-85
2021/08/09 17:46:13;;;;;;;3.00;1.60;;;;;;;24.52;36.23;98124.78;8389070;28;20207;-85
2021/08/09 17:50:17;;;;;;;3.57;1.40;;;;;;;24.50;36.68;98130.22;8389230;28;20214;-85
2021/08/09 17:54:20;;;;;;;2.47;1.27;;;;;;;24.42;36.78;98124.81;8388720;28;20211;-85
2021/08/09 17:58:23;;;;;;;3.97;1.23;;;;;;;24.37;37.27;98130.59;8388451;28;20199;-85
2021/08/09 18:02:26;;;;;;;3.67;1.50;;;;;;;24.30;37.76;98124.22;8388461;28;20386;-83
2021/08/09 18:06:30;;;;;;;2.43;1.50;;;;;;;24.26;38.20;98127.34;8388244;28;20226;-84
2021/08/09 18:10:33;;;;;;;3.10;1.60;;;;;;;24.25;40.08;98128.31;8388304;28;20214;-84
2021/08/09 18:14:36;;;;;;;4.17;1.40;;;;;;;24.16;39.65;98128.25;8388257;28;20204;-84
2021/08/09 18:18:39;;;;;;;2.70;1.20;;;;;;;24.10;39.48;98120.88;8387885;28;20210;-84
2021/08/09 18:22:43;;;;;;;8.77;1.83;;;;;;;24.10;39.96;98130.66;8387952;28;20235;-84
2021/08/09 18:26:46;;;;;;;3.33;1.60;;;;;;;24.04;40.95;98131.25;8387953;28;20204;-84
2021/08/09 18:30:49;;;;;;;4.53;1.80;;;;;;;23.98;43.07;98132.69;8387768;28;20200;-84
2021/08/09 18:34:52;;;;;;;2.97;1.40;;;;;;;23.95;42.58;98130.31;8387425;28;20227;-85
2021/08/09 18:38:56;;;;;;;3.03;1.40;;;;;;;23.90;43.49;98129.94;8387463;28;20214;-84
2021/08/09 18:42:59;;;;;;;2.73;1.20;;;;;;;23.84;43.08;98141.09;8387234;28;20562;-84
2021/08/09 18:47:02;;;;;;;3.10;1.57;;;;;;;23.66;42.39;98141.84;8386993;28;20199;-84
2021/08/09 18:51:05;;;;;;;3.87;1.50;;;;;;;23.61;43.12;98142.31;8386299;28;20199;-85
2021/08/09 18:55:10;;;;;;;4.50;1.40;;;;;;;23.56;43.76;98154.28;8386989;28;20200;-84
2021/08/09 18:59:13;;;;;;;5.13;1.30;;;;;;;23.48;44.19;98164.78;8386750;28;20209;-85
2021/08/09 19:03:20;;;;;;;2.67;1.20;;;;;;;23.43;44.88;98171.28;8386464;28;20227;-85
2021/08/09 19:07:23;;;;;;;7.43;1.77;;;;;;;23.32;46.45;98176.78;8386523;28;20227;-85
2021/08/09 19:11:27;;;;;;;4.00;2.00;;;;;;;23.27;46.19;98180.84;8386457;28;20505;-85
2021/08/09 19:15:30;;;;;;;6.20;1.73;;;;;;;23.19;46.12;98179.72;8386293;28;20380;-85